DLH5LJ LIRN-EDDM
Flight info
| Callsign | DLH5LJ |
|---|---|
| Flight time | 1h 19m |
| Altitude | 38000 |
| Route | ALAXI7J ALAXI DCT INSOX DCT SUMIR DCT NAXAV DCT SOTOV/N0387F240 T101 BETOS BETOS1B |
| Aircraft | A320/M-SDE3FGHIRWY/LB1 |
Departure
| Time | 2026-05-05 14:19 |
|---|---|
| Airport | Naples International Airport (LIRN) |
Arrival
| Time | 2026-05-05 15:39 |
|---|---|
| Airport | Munich Airport (EDDM) |
| Time | Latitude | Longitude | Altitude | Speed | Heading |
|---|---|---|---|---|---|
| 2026-05-05 14:04 | 40.87881 | 14.28284 | 293 ft | 0 kts | 187° |
| 2026-05-05 14:09 | 40.87881 | 14.28285 | 293 ft | 0 kts | 187° |
| 2026-05-05 14:09 | 40.87892 | 14.28286 | 293 ft | 2 kts | 187° |
| 2026-05-05 14:10 | 40.87907 | 14.28289 | 293 ft | 2 kts | 188° |
| 2026-05-05 14:10 | 40.87922 | 14.28292 | 292 ft | 2 kts | 187° |
| 2026-05-05 14:10 | 40.87937 | 14.28294 | 292 ft | 1 kts | 199° |
| 2026-05-05 14:10 | 40.87947 | 14.28307 | 292 ft | 2 kts | 251° |
| 2026-05-05 14:11 | 40.87948 | 14.28318 | 292 ft | 1 kts | 278° |
| 2026-05-05 14:11 | 40.87947 | 14.28327 | 293 ft | 0 kts | 277° |
| 2026-05-05 14:14 | 40.87947 | 14.28324 | 292 ft | 2 kts | 277° |
| 2026-05-05 14:14 | 40.87954 | 14.28255 | 291 ft | 11 kts | 277° |
| 2026-05-05 14:15 | 40.87967 | 14.28149 | 290 ft | 12 kts | 279° |
| 2026-05-05 14:15 | 40.87926 | 14.28060 | 291 ft | 11 kts | 221° |
| 2026-05-05 14:15 | 40.87873 | 14.27986 | 293 ft | 10 kts | 232° |
| 2026-05-05 14:15 | 40.87862 | 14.27891 | 294 ft | 12 kts | 302° |
| 2026-05-05 14:16 | 40.87898 | 14.27848 | 293 ft | 0 kts | 323° |
| 2026-05-05 14:17 | 40.87902 | 14.27844 | 293 ft | 2 kts | 323° |
| 2026-05-05 14:17 | 40.87936 | 14.27812 | 293 ft | 9 kts | 325° |
| 2026-05-05 14:18 | 40.88012 | 14.27816 | 292 ft | 14 kts | 51° |
| 2026-05-05 14:18 | 40.88076 | 14.27961 | 288 ft | 30 kts | 58° |
| 2026-05-05 14:18 | 40.88335 | 14.28510 | 276 ft | 107 kts | 58° |
| 2026-05-05 14:18 | 40.88847 | 14.29589 | 259 ft | 167 kts | 57° |
| 2026-05-05 14:19 | 40.89470 | 14.30918 | 830 ft | 171 kts | 58° |
| 2026-05-05 14:19 | 40.90102 | 14.32269 | 1508 ft | 174 kts | 58° |
| 2026-05-05 14:19 | 40.90732 | 14.33610 | 2211 ft | 176 kts | 58° |
| 2026-05-05 14:19 | 40.91404 | 14.35045 | 2638 ft | 191 kts | 58° |
| 2026-05-05 14:20 | 40.92125 | 14.36580 | 3040 ft | 207 kts | 57° |
| 2026-05-05 14:20 | 40.93055 | 14.38143 | 3435 ft | 224 kts | 35° |
| 2026-05-05 14:20 | 40.94579 | 14.38787 | 3736 ft | 243 kts | 354° |
| 2026-05-05 14:20 | 40.96246 | 14.38244 | 4208 ft | 257 kts | 339° |
| 2026-05-05 14:21 | 40.97968 | 14.37477 | 4737 ft | 266 kts | 340° |
| 2026-05-05 14:21 | 40.99780 | 14.36792 | 5476 ft | 272 kts | 343° |
| 2026-05-05 14:21 | 41.01600 | 14.36221 | 6375 ft | 272 kts | 345° |
| 2026-05-05 14:21 | 41.03445 | 14.35705 | 7225 ft | 274 kts | 345° |
| 2026-05-05 14:22 | 41.05322 | 14.35213 | 8051 ft | 277 kts | 346° |
| 2026-05-05 14:22 | 41.07232 | 14.34726 | 8887 ft | 280 kts | 346° |
| 2026-05-05 14:22 | 41.09125 | 14.34245 | 9710 ft | 282 kts | 344° |
| 2026-05-05 14:22 | 41.11013 | 14.33508 | 10502 ft | 284 kts | 335° |
| 2026-05-05 14:23 | 41.12825 | 14.32351 | 10985 ft | 297 kts | 327° |
| 2026-05-05 14:23 | 41.14621 | 14.30899 | 11496 ft | 309 kts | 325° |
| 2026-05-05 14:23 | 41.16440 | 14.29379 | 12217 ft | 313 kts | 324° |
| 2026-05-05 14:23 | 41.18294 | 14.27829 | 12993 ft | 315 kts | 324° |
| 2026-05-05 14:24 | 41.20134 | 14.26296 | 13741 ft | 317 kts | 324° |
| 2026-05-05 14:24 | 41.22007 | 14.24734 | 14438 ft | 320 kts | 324° |
| 2026-05-05 14:24 | 41.23911 | 14.23152 | 15075 ft | 324 kts | 324° |
| 2026-05-05 14:24 | 41.25839 | 14.21546 | 15703 ft | 329 kts | 324° |
| 2026-05-05 14:25 | 41.27772 | 14.19937 | 16317 ft | 333 kts | 324° |
| 2026-05-05 14:25 | 41.29727 | 14.18307 | 16920 ft | 336 kts | 324° |
| 2026-05-05 14:25 | 41.31725 | 14.16642 | 17503 ft | 340 kts | 324° |
| 2026-05-05 14:25 | 41.33760 | 14.15041 | 18046 ft | 347 kts | 330° |
| 2026-05-05 14:26 | 41.36025 | 14.13789 | 18630 ft | 352 kts | 335° |
| 2026-05-05 14:26 | 41.38330 | 14.12660 | 19228 ft | 355 kts | 335° |
| 2026-05-05 14:26 | 41.40648 | 14.11526 | 19798 ft | 357 kts | 335° |
| 2026-05-05 14:26 | 41.42983 | 14.10361 | 20365 ft | 359 kts | 334° |
| 2026-05-05 14:27 | 41.45317 | 14.09178 | 20904 ft | 361 kts | 334° |
| 2026-05-05 14:27 | 41.47653 | 14.07979 | 21425 ft | 364 kts | 334° |
| 2026-05-05 14:27 | 41.50014 | 14.06759 | 21949 ft | 367 kts | 334° |
| 2026-05-05 14:27 | 41.52403 | 14.05518 | 22458 ft | 369 kts | 334° |
| 2026-05-05 14:28 | 41.54814 | 14.04262 | 22962 ft | 372 kts | 334° |
| 2026-05-05 14:28 | 41.57217 | 14.03009 | 23459 ft | 374 kts | 334° |
| 2026-05-05 14:28 | 41.59654 | 14.01734 | 23946 ft | 377 kts | 334° |
| 2026-05-05 14:28 | 41.62089 | 14.00460 | 24419 ft | 379 kts | 334° |
| 2026-05-05 14:29 | 41.64558 | 13.99164 | 24876 ft | 382 kts | 334° |
| 2026-05-05 14:29 | 41.67041 | 13.97861 | 25317 ft | 385 kts | 334° |
| 2026-05-05 14:29 | 41.69533 | 13.96552 | 25771 ft | 387 kts | 333° |
| 2026-05-05 14:29 | 41.72041 | 13.95233 | 26202 ft | 389 kts | 333° |
| 2026-05-05 14:30 | 41.74566 | 13.93905 | 26621 ft | 391 kts | 333° |
| 2026-05-05 14:30 | 41.77077 | 13.92580 | 27020 ft | 394 kts | 333° |
| 2026-05-05 14:30 | 41.79627 | 13.91236 | 27403 ft | 396 kts | 333° |
| 2026-05-05 14:30 | 41.82219 | 13.89868 | 27773 ft | 399 kts | 333° |
| 2026-05-05 14:31 | 41.84773 | 13.88518 | 28140 ft | 401 kts | 333° |
| 2026-05-05 14:31 | 41.87372 | 13.87143 | 28509 ft | 403 kts | 333° |
| 2026-05-05 14:31 | 41.89997 | 13.85753 | 28860 ft | 405 kts | 333° |
| 2026-05-05 14:31 | 41.92630 | 13.84358 | 29213 ft | 407 kts | 333° |
| 2026-05-05 14:32 | 41.95243 | 13.82972 | 29546 ft | 409 kts | 333° |
| 2026-05-05 14:32 | 41.97910 | 13.81558 | 29866 ft | 412 kts | 333° |
| 2026-05-05 14:32 | 42.00581 | 13.80139 | 30188 ft | 414 kts | 333° |
| 2026-05-05 14:32 | 42.03265 | 13.78713 | 30505 ft | 415 kts | 333° |
| 2026-05-05 14:33 | 42.05935 | 13.77291 | 30810 ft | 417 kts | 333° |
| 2026-05-05 14:33 | 42.08641 | 13.75850 | 31132 ft | 418 kts | 333° |
| 2026-05-05 14:33 | 42.11369 | 13.74397 | 31440 ft | 419 kts | 333° |
| 2026-05-05 14:33 | 42.14058 | 13.72963 | 31738 ft | 421 kts | 333° |
| 2026-05-05 14:34 | 42.16783 | 13.71505 | 32011 ft | 422 kts | 333° |
| 2026-05-05 14:34 | 42.19512 | 13.70048 | 32298 ft | 423 kts | 333° |
| 2026-05-05 14:34 | 42.22240 | 13.68589 | 32554 ft | 424 kts | 333° |
| 2026-05-05 14:34 | 42.24979 | 13.67121 | 32809 ft | 425 kts | 333° |
| 2026-05-05 14:35 | 42.27713 | 13.65655 | 33065 ft | 426 kts | 333° |
| 2026-05-05 14:35 | 42.30479 | 13.64172 | 33396 ft | 424 kts | 333° |
| 2026-05-05 14:35 | 42.33213 | 13.62706 | 33756 ft | 422 kts | 333° |
| 2026-05-05 14:35 | 42.35921 | 13.61253 | 34088 ft | 420 kts | 332° |
| 2026-05-05 14:36 | 42.38640 | 13.59790 | 34384 ft | 419 kts | 332° |
| 2026-05-05 14:36 | 42.41323 | 13.58343 | 34713 ft | 418 kts | 332° |
| 2026-05-05 14:36 | 42.44022 | 13.56887 | 34993 ft | 418 kts | 332° |
| 2026-05-05 14:36 | 42.46722 | 13.55429 | 35233 ft | 418 kts | 332° |
| 2026-05-05 14:37 | 42.49392 | 13.53986 | 35492 ft | 417 kts | 332° |
| 2026-05-05 14:37 | 42.52103 | 13.52520 | 35731 ft | 417 kts | 332° |
| 2026-05-05 14:37 | 42.54802 | 13.51058 | 35963 ft | 417 kts | 332° |
| 2026-05-05 14:37 | 42.57464 | 13.49616 | 36209 ft | 416 kts | 332° |
| 2026-05-05 14:38 | 42.60165 | 13.48152 | 36097 ft | 416 kts | 332° |
| 2026-05-05 14:38 | 42.62839 | 13.46700 | 36223 ft | 418 kts | 332° |
| 2026-05-05 14:38 | 42.65552 | 13.45225 | 36712 ft | 419 kts | 332° |
| 2026-05-05 14:38 | 42.68253 | 13.43757 | 36538 ft | 419 kts | 332° |
| 2026-05-05 14:39 | 42.70944 | 13.42293 | 36681 ft | 420 kts | 332° |
| 2026-05-05 14:39 | 42.73656 | 13.40815 | 36805 ft | 421 kts | 332° |
| 2026-05-05 14:39 | 42.76377 | 13.39331 | 36970 ft | 422 kts | 332° |
| 2026-05-05 14:39 | 42.79104 | 13.37843 | 37148 ft | 422 kts | 332° |
| 2026-05-05 14:40 | 42.81812 | 13.36366 | 37285 ft | 423 kts | 332° |
| 2026-05-05 14:40 | 42.84556 | 13.34865 | 37369 ft | 424 kts | 332° |
| 2026-05-05 14:40 | 42.87283 | 13.33370 | 37494 ft | 425 kts | 332° |
| 2026-05-05 14:40 | 42.90025 | 13.31870 | 37651 ft | 425 kts | 332° |
| 2026-05-05 14:41 | 42.92777 | 13.30360 | 37780 ft | 426 kts | 332° |
| 2026-05-05 14:41 | 42.95522 | 13.28853 | 37917 ft | 427 kts | 332° |
| 2026-05-05 14:41 | 42.98255 | 13.27353 | 38033 ft | 427 kts | 331° |
| 2026-05-05 14:41 | 43.01012 | 13.25836 | 38027 ft | 428 kts | 332° |
| 2026-05-05 14:42 | 43.06547 | 13.22787 | 38027 ft | 429 kts | 332° |
| 2026-05-05 14:42 | 43.12069 | 13.19739 | 38026 ft | 429 kts | 332° |
| 2026-05-05 14:43 | 43.17590 | 13.16686 | 38012 ft | 430 kts | 332° |
| 2026-05-05 14:43 | 43.23132 | 13.13617 | 38021 ft | 430 kts | 332° |
| 2026-05-05 14:44 | 43.28701 | 13.10524 | 38010 ft | 432 kts | 332° |
| 2026-05-05 14:44 | 43.34250 | 13.07440 | 38005 ft | 432 kts | 332° |
| 2026-05-05 14:45 | 43.39841 | 13.04324 | 37998 ft | 433 kts | 332° |
| 2026-05-05 14:45 | 43.45387 | 13.01227 | 37995 ft | 434 kts | 332° |
| 2026-05-05 14:46 | 43.51007 | 12.98083 | 37991 ft | 435 kts | 332° |
| 2026-05-05 14:46 | 43.56596 | 12.94948 | 37987 ft | 435 kts | 332° |
| 2026-05-05 14:47 | 43.62236 | 12.91779 | 37990 ft | 436 kts | 332° |
| 2026-05-05 14:47 | 43.67818 | 12.88638 | 37986 ft | 435 kts | 332° |
| 2026-05-05 14:48 | 43.73451 | 12.85459 | 37980 ft | 436 kts | 332° |
| 2026-05-05 14:48 | 43.79071 | 12.82284 | 37977 ft | 438 kts | 332° |
| 2026-05-05 14:49 | 43.84689 | 12.79103 | 37978 ft | 438 kts | 332° |
| 2026-05-05 14:49 | 43.90325 | 12.75907 | 37975 ft | 437 kts | 332° |
| 2026-05-05 14:50 | 43.95958 | 12.72701 | 37970 ft | 438 kts | 332° |
| 2026-05-05 14:50 | 44.01615 | 12.69474 | 37972 ft | 440 kts | 332° |
| 2026-05-05 14:51 | 44.07254 | 12.66259 | 37969 ft | 440 kts | 332° |
| 2026-05-05 14:51 | 44.12905 | 12.63024 | 37971 ft | 440 kts | 332° |
| 2026-05-05 14:52 | 44.18572 | 12.59774 | 37974 ft | 441 kts | 332° |
| 2026-05-05 14:52 | 44.24229 | 12.56525 | 37969 ft | 440 kts | 332° |
| 2026-05-05 14:53 | 44.29892 | 12.53265 | 37966 ft | 441 kts | 332° |
| 2026-05-05 14:53 | 44.35528 | 12.50010 | 37963 ft | 441 kts | 332° |
| 2026-05-05 14:54 | 44.41212 | 12.46724 | 37962 ft | 441 kts | 332° |
| 2026-05-05 14:54 | 44.46856 | 12.43453 | 37961 ft | 441 kts | 333° |
| 2026-05-05 14:55 | 44.52530 | 12.40157 | 37962 ft | 442 kts | 333° |
| 2026-05-05 14:55 | 44.58183 | 12.36869 | 37957 ft | 443 kts | 333° |
| 2026-05-05 14:56 | 44.63892 | 12.33540 | 37959 ft | 443 kts | 332° |
| 2026-05-05 14:56 | 44.69541 | 12.30240 | 37959 ft | 443 kts | 332° |
| 2026-05-05 14:57 | 44.75256 | 12.26892 | 37953 ft | 443 kts | 332° |
| 2026-05-05 14:57 | 44.80928 | 12.23565 | 37958 ft | 443 kts | 332° |
| 2026-05-05 14:58 | 44.86618 | 12.20218 | 37954 ft | 444 kts | 332° |
| 2026-05-05 14:58 | 44.92309 | 12.16863 | 37954 ft | 445 kts | 332° |
| 2026-05-05 14:59 | 44.98032 | 12.13483 | 37956 ft | 446 kts | 332° |
| 2026-05-05 14:59 | 45.03739 | 12.10106 | 37955 ft | 446 kts | 332° |
| 2026-05-05 15:00 | 45.08509 | 12.07275 | 37955 ft | 446 kts | 333° |
| 2026-05-05 15:00 | 45.15192 | 12.03303 | 37957 ft | 446 kts | 333° |
| 2026-05-05 15:01 | 45.20925 | 11.99889 | 37961 ft | 446 kts | 333° |
| 2026-05-05 15:01 | 45.26635 | 11.96480 | 37962 ft | 446 kts | 333° |
| 2026-05-05 15:02 | 45.32320 | 11.93079 | 37972 ft | 447 kts | 333° |
| 2026-05-05 15:02 | 45.38070 | 11.89631 | 37974 ft | 447 kts | 332° |
| 2026-05-05 15:03 | 45.43764 | 11.86207 | 37972 ft | 447 kts | 332° |
| 2026-05-05 15:03 | 45.49488 | 11.82759 | 37981 ft | 447 kts | 332° |
| 2026-05-05 15:04 | 45.55207 | 11.79305 | 37982 ft | 447 kts | 332° |
| 2026-05-05 15:04 | 45.60911 | 11.75853 | 37984 ft | 447 kts | 332° |
| 2026-05-05 15:05 | 45.69471 | 11.70658 | 37986 ft | 447 kts | 332° |
| 2026-05-05 15:06 | 45.75160 | 11.67197 | 37981 ft | 447 kts | 332° |
| 2026-05-05 15:06 | 45.80883 | 11.63706 | 37984 ft | 447 kts | 332° |
| 2026-05-05 15:07 | 45.86604 | 11.60209 | 37981 ft | 447 kts | 333° |
| 2026-05-05 15:07 | 45.92295 | 11.56722 | 37967 ft | 447 kts | 333° |
| 2026-05-05 15:08 | 45.98031 | 11.53200 | 37970 ft | 448 kts | 333° |
| 2026-05-05 15:08 | 46.03194 | 11.50025 | 37970 ft | 448 kts | 333° |
| 2026-05-05 15:09 | 46.08889 | 11.46512 | 37967 ft | 448 kts | 333° |
| 2026-05-05 15:09 | 46.14637 | 11.42959 | 37966 ft | 449 kts | 333° |
| 2026-05-05 15:10 | 46.20372 | 11.39447 | 37968 ft | 450 kts | 334° |
| 2026-05-05 15:10 | 46.26339 | 11.36601 | 37973 ft | 454 kts | 341° |
| 2026-05-05 15:11 | 46.32509 | 11.34759 | 37977 ft | 458 kts | 347° |
| 2026-05-05 15:11 | 46.38841 | 11.33580 | 37971 ft | 458 kts | 348° |
| 2026-05-05 15:12 | 46.45182 | 11.32454 | 37958 ft | 459 kts | 348° |
| 2026-05-05 15:12 | 46.51481 | 11.31128 | 37950 ft | 458 kts | 346° |
| 2026-05-05 15:13 | 46.57769 | 11.29635 | 37956 ft | 459 kts | 346° |
| 2026-05-05 15:13 | 46.64082 | 11.28152 | 37973 ft | 459 kts | 346° |
| 2026-05-05 15:14 | 46.70378 | 11.26686 | 37987 ft | 459 kts | 346° |
| 2026-05-05 15:14 | 46.76673 | 11.25218 | 37986 ft | 460 kts | 346° |
| 2026-05-05 15:15 | 46.82977 | 11.23746 | 37986 ft | 460 kts | 346° |
| 2026-05-05 15:15 | 46.89314 | 11.22264 | 37986 ft | 461 kts | 347° |
| 2026-05-05 15:16 | 46.95715 | 11.21361 | 37991 ft | 465 kts | 354° |
| 2026-05-05 15:16 | 47.02187 | 11.21523 | 37997 ft | 468 kts | 359° |
| 2026-05-05 15:17 | 47.08650 | 11.21990 | 37987 ft | 468 kts | 359° |
| 2026-05-05 15:17 | 47.15202 | 11.22453 | 37973 ft | 469 kts | 359° |
| 2026-05-05 15:18 | 47.21698 | 11.22899 | 37949 ft | 469 kts | 359° |
| 2026-05-05 15:18 | 47.28194 | 11.23339 | 37918 ft | 468 kts | 359° |
| 2026-05-05 15:19 | 47.34723 | 11.23778 | 37734 ft | 471 kts | 359° |
| 2026-05-05 15:19 | 47.37983 | 11.24000 | 37109 ft | 468 kts | 359° |
| 2026-05-05 15:19 | 47.41231 | 11.24224 | 36499 ft | 464 kts | 359° |
| 2026-05-05 15:19 | 47.44403 | 11.24441 | 36024 ft | 462 kts | 359° |
| 2026-05-05 15:20 | 47.47624 | 11.24660 | 35562 ft | 463 kts | 359° |
| 2026-05-05 15:20 | 47.50852 | 11.24882 | 35095 ft | 464 kts | 359° |
| 2026-05-05 15:20 | 47.54078 | 11.25100 | 34638 ft | 466 kts | 359° |
| 2026-05-05 15:20 | 47.57297 | 11.25173 | 34140 ft | 467 kts | 357° |
| 2026-05-05 15:21 | 47.60546 | 11.25158 | 33625 ft | 468 kts | 356° |
| 2026-05-05 15:21 | 47.63804 | 11.25122 | 33110 ft | 470 kts | 357° |
| 2026-05-05 15:21 | 47.67061 | 11.25093 | 32598 ft | 472 kts | 357° |
| 2026-05-05 15:21 | 47.70312 | 11.25071 | 32045 ft | 470 kts | 358° |
| 2026-05-05 15:22 | 47.73562 | 11.25395 | 31392 ft | 470 kts | 9° |
| 2026-05-05 15:22 | 47.76722 | 11.26636 | 30759 ft | 469 kts | 19° |
| 2026-05-05 15:22 | 47.79744 | 11.28305 | 30107 ft | 467 kts | 22° |
| 2026-05-05 15:22 | 47.82734 | 11.30053 | 29429 ft | 465 kts | 22° |
| 2026-05-05 15:23 | 47.85766 | 11.31810 | 28743 ft | 463 kts | 21° |
| 2026-05-05 15:23 | 47.88816 | 11.33236 | 28057 ft | 461 kts | 12° |
| 2026-05-05 15:23 | 47.91947 | 11.33860 | 27394 ft | 458 kts | 4° |
| 2026-05-05 15:23 | 47.95130 | 11.34133 | 26711 ft | 455 kts | 2° |
| 2026-05-05 15:24 | 47.98285 | 11.34340 | 26036 ft | 452 kts | 2° |
| 2026-05-05 15:24 | 48.01366 | 11.34558 | 25385 ft | 449 kts | 2° |
| 2026-05-05 15:24 | 48.04506 | 11.34820 | 24708 ft | 446 kts | 4° |
| 2026-05-05 15:24 | 48.07476 | 11.35777 | 24014 ft | 441 kts | 24° |
| 2026-05-05 15:25 | 48.10073 | 11.38164 | 23352 ft | 433 kts | 40° |
| 2026-05-05 15:25 | 48.12325 | 11.41058 | 22710 ft | 429 kts | 43° |
| 2026-05-05 15:25 | 48.14531 | 11.44017 | 22083 ft | 426 kts | 43° |
| 2026-05-05 15:25 | 48.16758 | 11.46894 | 21458 ft | 423 kts | 41° |
| 2026-05-05 15:26 | 48.19014 | 11.49696 | 20817 ft | 421 kts | 40° |
| 2026-05-05 15:26 | 48.21291 | 11.52465 | 20184 ft | 418 kts | 39° |
| 2026-05-05 15:26 | 48.23395 | 11.55416 | 19525 ft | 414 kts | 53° |
| 2026-05-05 15:26 | 48.24662 | 11.59166 | 18895 ft | 406 kts | 76° |
| 2026-05-05 15:27 | 48.25050 | 11.63298 | 18243 ft | 401 kts | 88° |
| 2026-05-05 15:27 | 48.25185 | 11.67502 | 17589 ft | 400 kts | 89° |
| 2026-05-05 15:27 | 48.25334 | 11.71584 | 16952 ft | 399 kts | 88° |
| 2026-05-05 15:27 | 48.25542 | 11.75736 | 16245 ft | 398 kts | 87° |
| 2026-05-05 15:28 | 48.25793 | 11.79855 | 15605 ft | 397 kts | 86° |
| 2026-05-05 15:28 | 48.26073 | 11.83983 | 14992 ft | 395 kts | 86° |
| 2026-05-05 15:28 | 48.26364 | 11.88042 | 14320 ft | 394 kts | 86° |
| 2026-05-05 15:28 | 48.26659 | 11.92061 | 13704 ft | 392 kts | 86° |
| 2026-05-05 15:29 | 48.26962 | 11.96146 | 13076 ft | 390 kts | 85° |
| 2026-05-05 15:29 | 48.27258 | 12.00108 | 12435 ft | 387 kts | 85° |
| 2026-05-05 15:29 | 48.27557 | 12.04119 | 11813 ft | 383 kts | 85° |
| 2026-05-05 15:29 | 48.27843 | 12.07953 | 11188 ft | 365 kts | 85° |
| 2026-05-05 15:30 | 48.28118 | 12.11654 | 10516 ft | 346 kts | 85° |
| 2026-05-05 15:30 | 48.28375 | 12.15116 | 9791 ft | 331 kts | 85° |
| 2026-05-05 15:30 | 48.28622 | 12.18499 | 9046 ft | 320 kts | 85° |
| 2026-05-05 15:30 | 48.28856 | 12.21712 | 8313 ft | 310 kts | 85° |
| 2026-05-05 15:31 | 48.29084 | 12.24877 | 7570 ft | 303 kts | 84° |
| 2026-05-05 15:31 | 48.29409 | 12.27977 | 6822 ft | 307 kts | 71° |
| 2026-05-05 15:31 | 48.30533 | 12.30604 | 6088 ft | 299 kts | 38° |
| 2026-05-05 15:31 | 48.32317 | 12.31923 | 5791 ft | 282 kts | 12° |
| 2026-05-05 15:32 | 48.34225 | 12.32088 | 5671 ft | 271 kts | 351° |
| 2026-05-05 15:32 | 48.36000 | 12.31246 | 5547 ft | 269 kts | 330° |
| 2026-05-05 15:32 | 48.37453 | 12.29494 | 5416 ft | 268 kts | 309° |
| 2026-05-05 15:32 | 48.38379 | 12.27029 | 5267 ft | 284 kts | 288° |
| 2026-05-05 15:33 | 48.38648 | 12.24069 | 5095 ft | 289 kts | 271° |
| 2026-05-05 15:33 | 48.38688 | 12.21055 | 5064 ft | 289 kts | 276° |
| 2026-05-05 15:33 | 48.39003 | 12.18079 | 5061 ft | 288 kts | 278° |
| 2026-05-05 15:33 | 48.39118 | 12.15114 | 5040 ft | 281 kts | 268° |
| 2026-05-05 15:34 | 48.39014 | 12.12232 | 5030 ft | 265 kts | 266° |
| 2026-05-05 15:34 | 48.38851 | 12.09583 | 4904 ft | 247 kts | 265° |
| 2026-05-05 15:34 | 48.38662 | 12.07088 | 4623 ft | 240 kts | 264° |
| 2026-05-05 15:34 | 48.38464 | 12.04653 | 4309 ft | 228 kts | 264° |
| 2026-05-05 15:35 | 48.38280 | 12.02411 | 4007 ft | 207 kts | 264° |
| 2026-05-05 15:35 | 48.38114 | 12.00359 | 3796 ft | 189 kts | 265° |
| 2026-05-05 15:35 | 48.37964 | 11.98484 | 3605 ft | 173 kts | 265° |
| 2026-05-05 15:35 | 48.37828 | 11.96765 | 3357 ft | 160 kts | 266° |
| 2026-05-05 15:36 | 48.37703 | 11.95177 | 3116 ft | 147 kts | 266° |
| 2026-05-05 15:36 | 48.37587 | 11.93718 | 2898 ft | 134 kts | 266° |
| 2026-05-05 15:36 | 48.37479 | 11.92364 | 2712 ft | 132 kts | 266° |
| 2026-05-05 15:36 | 48.37360 | 11.90983 | 2576 ft | 132 kts | 266° |
| 2026-05-05 15:37 | 48.37242 | 11.89624 | 2438 ft | 133 kts | 264° |
| 2026-05-05 15:37 | 48.37128 | 11.88239 | 2289 ft | 135 kts | 266° |
| 2026-05-05 15:37 | 48.37031 | 11.86837 | 2096 ft | 132 kts | 265° |
| 2026-05-05 15:37 | 48.36928 | 11.85468 | 1906 ft | 132 kts | 265° |
| 2026-05-05 15:38 | 48.36833 | 11.84105 | 1742 ft | 132 kts | 264° |
| 2026-05-05 15:38 | 48.36730 | 11.82747 | 1575 ft | 129 kts | 265° |
| 2026-05-05 15:38 | 48.36636 | 11.81439 | 1459 ft | 118 kts | 264° |
| 2026-05-05 15:38 | 48.36560 | 11.80441 | 1463 ft | 72 kts | 264° |
| 2026-05-05 15:39 | 48.36515 | 11.79905 | 1466 ft | 44 kts | 256° |
| 2026-05-05 15:39 | 48.36393 | 11.79585 | 1468 ft | 27 kts | 233° |
| 2026-05-05 15:39 | 48.36285 | 11.79364 | 1470 ft | 24 kts | 232° |
| 2026-05-05 15:39 | 48.36138 | 11.79308 | 1471 ft | 22 kts | 174° |
| 2026-05-05 15:40 | 48.35981 | 11.79335 | 1472 ft | 22 kts | 173° |
| 2026-05-05 15:40 | 48.35856 | 11.79385 | 1473 ft | 4 kts | 172° |
| 2026-05-05 15:40 | 48.35824 | 11.79361 | 1473 ft | 6 kts | 248° |
| 2026-05-05 15:40 | 48.35818 | 11.79280 | 1474 ft | 8 kts | 263° |
| 2026-05-05 15:41 | 48.35814 | 11.79233 | 1474 ft | 0 kts | 263° |
| 2026-05-05 15:41 | 48.35814 | 11.79234 | 1474 ft | 0 kts | 263° |